Sayner, WI (54560)

12:17 PM CDT on August 24, 2016 (GMT -0500)
PlumLake- East Shore | | Change Station

Elev 1670 ft 46.00 °N, 89.53 °W | Updated 8 seconds ago

Light Drizzle
Light Drizzle
69.4 °F
Feels Like 69.4 °F
N
6.5
Wind Variable Wind from North
Gusts 7.4 mph

Today
High -- | Low -- °F
--% Chance of Precip.
Yesterday
High -- | Low -- °F
Precip. -- in
Pressure 29.85 in
Visibility 2.0 miles
Clouds Overcast 700 ft
Dew Point 68 °F
Humidity 93%
Rainfall 0.37 in
Snow Depth Not available.
6:09 AM 7:50 PM
Waning Gibbous, 55% visible
METAR KARV 241650Z AUTO 27005KT 2SM -DZ OVC007 21/21 A2985 RMK AO2 T02140206
Pressure 29.85 in
Visibility 2.0 miles
Clouds Overcast 700 ft
Dew Point 68 °F
Humidity 93%
Rainfall 0.37 in
Snow Depth Not available.
6:09 AM 7:50 PM
Waning Gibbous, 55% visible
METAR KARV 241650Z AUTO 27005KT 2SM -DZ OVC007 21/21 A2985 RMK AO2 T02140206

10-Day Weather Forecast

Almanac

Astronomy

Aug. 24, 2016 Rise Set
Actual Time
Civil Twilight
Nautical Twilight
Astronomical Twilight
Moon
Length of Visible Light
Length of Day
Tomorrow will be .
, % of the Moon is Illuminated

Today's Extremes

State Highs State Lows

Community

WunderPhotos

Upload Photos

1,934,653 photos uploaded!

WunderBlog® & News

Nearby

Air Quality

  Air Quality AQ Index Pollutant
Not available.

Snow Depth

Station Depth Elevation

Earthquake Activity

City Distance Mag. Time & Date
Minimum magnitude displayed is 2.5.

Coastal Water Temperatures

Place Temperature

Stations

Nearby Weather Stations

Station Location Temp. Windchill Dew Point Humidity Wind Precip. Elev Updated Type
                   

Watches & Warnings

There are currently no watches in effect.